»·PEaware :: N441PW KPUB-KWDG

N441PW :: KPUB-KWDG

FLIGHT INFORMATION

Flight Status: Arrived
Operator: Privately registered:
United States
More flights under this callsign
Pilot: Stacy K. (11621)
Aircraft: CESSNA 404 TITAN
(C404)
More flights by this aircraft type
Origin: KPUB Pueblo Meml
United States
Destination: KWDG Enid Woodring Regl
United States
More flights between these airports :: More routes between these airports
Route: TF LAA ULS MMB END
File this flight plan on PilotEdge
Remarks:
Altitude:
(Current/Filed)
11,500ft
Speed:
(Current/Filed)
190kts
Departed: 13-Jun-19 04:21 PM
Arrived: 13-Jun-19 06:02 PM
Distance/Time
Traveled:
340nm/1:40
Distance/Time
To Go:
Arrived

Flight Plot

Page will automatically refresh every two minutes.

Flight plan parsing failed; only flown route is shown


Map Options




Map Legend


Flown Route
Filed Route
Departure Airport
Arrival Airport
Navaid (VOR, NDB)
Fix

Horizontal Profiles

Position Reports

Time Latitude Longitude Heading Altitude Ground
Speed
13-Jun-19 16:17 38.284594 -104.497015 179 4730ft 0kts
13-Jun-19 16:18 38.284684 -104.497309 0 4730ft 10kts
13-Jun-19 16:19 38.285339 -104.500638 87 4730ft 23kts
13-Jun-19 16:20 38.287904 -104.468850 77 5165ft 124kts
13-Jun-19 16:21 38.291717 -104.423118 93 6110ft 140kts
13-Jun-19 16:22 38.290749 -104.368767 87 6941ft 168kts
13-Jun-19 16:23 38.288651 -104.307457 91 7752ft 176kts
13-Jun-19 16:24 38.285249 -104.243621 90 8555ft 180kts
13-Jun-19 16:25 38.282096 -104.180954 89 9383ft 182kts
13-Jun-19 16:26 38.278729 -104.114631 89 10155ft 187kts
13-Jun-19 16:27 38.275317 -104.048186 88 10949ft 188kts
13-Jun-19 16:28 38.271750 -103.978426 88 11483ft 210kts
13-Jun-19 16:29 38.267732 -103.902834 89 11494ft 217kts
13-Jun-19 16:30 38.263622 -103.825867 89 11485ft 218kts
13-Jun-19 16:31 38.259471 -103.748852 89 11495ft 218kts
13-Jun-19 16:32 38.255251 -103.671403 89 11483ft 219kts
13-Jun-19 16:33 38.250882 -103.592178 89 11471ft 222kts
13-Jun-19 16:34 38.246425 -103.512655 88 11467ft 222kts
13-Jun-19 16:35 38.242006 -103.434835 88 11464ft 219kts
13-Jun-19 16:36 38.237507 -103.355762 88 11461ft 222kts
13-Jun-19 16:37 38.232985 -103.277893 88 11499ft 220kts
13-Jun-19 16:38 38.228354 -103.198486 88 11494ft 223kts
13-Jun-19 16:39 38.223623 -103.118697 88 11490ft 225kts
13-Jun-19 16:40 38.218782 -103.038221 88 11490ft 225kts
13-Jun-19 16:41 38.213962 -102.958963 87 11488ft 223kts
13-Jun-19 16:42 38.209063 -102.878733 88 11480ft 225kts
13-Jun-19 16:43 38.204039 -102.798089 87 11478ft 226kts
13-Jun-19 16:44 38.199015 -102.717744 87 11477ft 225kts
13-Jun-19 16:45 38.177359 -102.642611 115 11481ft 233kts
13-Jun-19 16:46 38.145047 -102.570781 115 11477ft 234kts
13-Jun-19 16:47 38.112956 -102.498843 115 11480ft 234kts
13-Jun-19 16:48 38.079867 -102.425152 115 11479ft 238kts
13-Jun-19 16:50 38.047266 -102.352681 115 11492ft 236kts
13-Jun-19 16:51 38.014308 -102.279742 115 11498ft 237kts
13-Jun-19 16:52 37.981623 -102.207231 115 11500ft 236kts
13-Jun-19 16:53 37.948947 -102.135063 115 11503ft 236kts
13-Jun-19 16:54 37.915981 -102.062469 115 11523ft 238kts
13-Jun-19 16:55 37.882515 -101.988795 115 11504ft 239kts
13-Jun-19 16:56 37.849248 -101.915936 115 11500ft 237kts
13-Jun-19 16:57 37.816218 -101.843672 115 11497ft 238kts
13-Jun-19 16:58 37.783089 -101.771260 115 11496ft 237kts
13-Jun-19 16:59 37.750081 -101.699261 116 11504ft 236kts
13-Jun-19 17:00 37.716970 -101.627095 116 11508ft 237kts
13-Jun-19 17:01 37.683312 -101.553951 116 11497ft 245kts
13-Jun-19 17:02 37.648963 -101.479769 116 11506ft 240kts
13-Jun-19 17:03 37.615415 -101.407278 116 11498ft 238kts
13-Jun-19 17:04 37.575250 -101.341569 134 11505ft 239kts
13-Jun-19 17:05 37.526698 -101.282433 134 11498ft 240kts
13-Jun-19 17:06 37.478867 -101.224529 134 11509ft 237kts
13-Jun-19 17:07 37.431285 -101.166975 134 11508ft 238kts
13-Jun-19 17:08 37.383538 -101.109239 134 11509ft 238kts
13-Jun-19 17:09 37.335782 -101.051612 134 11517ft 237kts
13-Jun-19 17:09 37.295928 -101.003763 134 11521ft 237kts
13-Jun-19 17:11 37.239487 -100.936027 134 11531ft 239kts
13-Jun-19 17:12 37.191171 -100.878184 134 11532ft 238kts
13-Jun-19 17:12 37.151366 -100.830560 134 11535ft 237kts
13-Jun-19 17:13 37.103507 -100.773376 134 11537ft 237kts
13-Jun-19 17:15 37.047738 -100.707013 134 11538ft 236kts
13-Jun-19 17:15 37.007944 -100.659616 134 11547ft 237kts
13-Jun-19 17:16 36.960244 -100.602771 135 11551ft 237kts
13-Jun-19 17:17 36.911671 -100.545301 135 11500ft 240kts
13-Jun-19 17:18 36.862765 -100.487499 135 11502ft 240kts
13-Jun-19 17:19 36.814643 -100.430644 135 11509ft 237kts
13-Jun-19 17:20 36.766813 -100.374324 136 11512ft 235kts
13-Jun-19 17:21 36.719171 -100.318259 135 11515ft 236kts
13-Jun-19 17:22 36.671409 -100.262226 136 11504ft 236kts
13-Jun-19 17:23 36.623493 -100.206048 135 11502ft 236kts
13-Jun-19 17:24 36.575456 -100.149827 136 11506ft 236kts
13-Jun-19 17:25 36.527741 -100.094101 136 11512ft 234kts
13-Jun-19 17:26 36.480117 -100.038519 136 11521ft 235kts
13-Jun-19 17:27 36.432427 -99.982981 136 11530ft 235kts
13-Jun-19 17:28 36.384526 -99.927270 136 11530ft 236kts
13-Jun-19 17:29 36.344864 -99.864975 95 11532ft 228kts
13-Jun-19 17:30 36.344288 -99.787447 82 11533ft 224kts
13-Jun-19 17:31 36.345135 -99.709771 82 11530ft 224kts
13-Jun-19 17:32 36.345659 -99.632756 82 11536ft 224kts
13-Jun-19 17:33 36.346129 -99.555470 82 11546ft 224kts
13-Jun-19 17:34 36.346588 -99.477986 82 11551ft 224kts
13-Jun-19 17:35 36.347053 -99.399701 82 11239ft 234kts
13-Jun-19 17:36 36.347341 -99.318389 82 10554ft 235kts
13-Jun-19 17:37 36.347621 -99.237890 82 9862ft 230kts
13-Jun-19 17:38 36.347891 -99.159352 82 9178ft 226kts
13-Jun-19 17:39 36.348089 -99.082171 82 8490ft 221kts
13-Jun-19 17:40 36.336135 -99.006443 103 7809ft 229kts
13-Jun-19 17:41 36.324342 -98.931723 79 7135ft 215kts
13-Jun-19 17:42 36.329129 -98.858478 74 6450ft 210kts
13-Jun-19 17:43 36.341330 -98.788724 62 5769ft 202kts
13-Jun-19 17:44 36.363705 -98.725166 58 5078ft 201kts
13-Jun-19 17:45 36.386995 -98.661972 58 4390ft 201kts
13-Jun-19 17:46 36.410789 -98.598999 58 3705ft 201kts
13-Jun-19 17:47 36.434414 -98.537797 58 3489ft 191kts
13-Jun-19 17:48 36.453694 -98.476021 63 3492ft 191kts
13-Jun-19 17:49 36.471979 -98.414024 63 3489ft 191kts
13-Jun-19 17:50 36.490391 -98.351942 63 3499ft 190kts
13-Jun-19 17:51 36.508607 -98.290239 63 3500ft 191kts
13-Jun-19 17:52 36.526371 -98.227770 75 3463ft 197kts
13-Jun-19 17:53 36.527253 -98.156791 85 2791ft 208kts
13-Jun-19 17:54 36.527330 -98.086149 88 2307ft 193kts
13-Jun-19 17:55 36.527347 -98.024236 84 2800ft 177kts
13-Jun-19 17:56 36.519426 -97.962191 122 2814ft 192kts
13-Jun-19 17:57 36.481794 -97.912882 133 2809ft 198kts
13-Jun-19 17:58 36.442603 -97.864125 134 2803ft 202kts
13-Jun-19 17:59 36.407064 -97.820294 134 1885ft 152kts
13-Jun-19 18:00 36.382572 -97.789945 136 1172ft 84kts
13-Jun-19 18:01 36.378712 -97.784134 344 1171ft 13kts
13-Jun-19 18:02 36.382304 -97.788081 324 1171ft 10kts
13-Jun-19 18:03 36.385255 -97.788178 40 1171ft 16kts
13-Jun-19 18:04 36.385787 -97.787198 137 1171ft 0kts
13-Jun-19 18:05 36.385787 -97.787198 137 1171ft 0kts
13-Jun-19 18:06 36.385787 -97.787198 137 1171ft 0kts
13-Jun-19 18:07 36.385787 -97.787198 137 1171ft 0kts
13-Jun-19 18:08 36.385787 -97.787198 137 1171ft 0kts
13-Jun-19 18:09 36.385787 -97.787198 137 1171ft 0kts
13-Jun-19 18:10 36.385787 -97.787198 137 1171ft 0kts
13-Jun-19 18:11 36.385787 -97.787198 137 1171ft 0kts
13-Jun-19 18:12 36.385787 -97.787198 137 1171ft 0kts

Navigation Log

Ident Type
Flight plan parsing failed, navigation log unavailable